»·PEaware :: N5724J KSBP-KMRY

N5724J :: KSBP-KMRY

FLIGHT INFORMATION

Flight Status: Arrived
Operator: Privately registered:
United States
More flights under this callsign
Pilot: Anonymous 14019 (14019)
Aircraft: BEECH AIRCRAFT BONANZA
(BE35)
More flights by this aircraft type
Origin: KSBP San Luis Co Regl
United States
Destination: KMRY Monterey Peninsula
United States
More flights between these airports :: More routes between these airports
Route: +MQO V27 CARME
File this flight plan on PilotEdge
Remarks:
Altitude:
(Current/Filed)
8,000ft
Speed:
(Current/Filed)
170kts
Departed: 23-Aug-20 05:04 PM
Arrived: 23-Aug-20 05:56 PM
Distance/Time
Traveled:
100nm/0:52
Distance/Time
To Go:
Arrived

Flight Plot

Page will automatically refresh every two minutes.


Map Options




Map Legend


Flown Route
Filed Route
Departure Airport
Arrival Airport
Navaid (VOR, NDB)
Fix

Horizontal Profiles

Position Reports

Time Latitude Longitude Heading Altitude Ground
Speed
23-Aug-20 16:32 35.240343 -120.643410 303 215ft 0kts
23-Aug-20 16:33 35.240343 -120.643410 303 215ft 0kts
23-Aug-20 16:34 35.240343 -120.643411 303 215ft 0kts
23-Aug-20 16:35 35.240343 -120.643412 303 215ft 0kts
23-Aug-20 16:36 35.240344 -120.643413 303 215ft 0kts
23-Aug-20 16:37 35.240345 -120.643414 303 215ft 0kts
23-Aug-20 16:38 35.240345 -120.643414 303 215ft 0kts
23-Aug-20 16:39 35.240345 -120.643415 303 215ft 0kts
23-Aug-20 16:40 35.240346 -120.643416 303 215ft 0kts
23-Aug-20 16:41 35.240346 -120.643417 303 215ft 0kts
23-Aug-20 16:42 35.240347 -120.643417 303 215ft 0kts
23-Aug-20 16:43 35.240347 -120.643419 303 215ft 0kts
23-Aug-20 16:44 35.240348 -120.643420 303 215ft 0kts
23-Aug-20 16:45 35.240348 -120.643421 303 215ft 0kts
23-Aug-20 16:46 35.240349 -120.643422 303 215ft 0kts
23-Aug-20 16:47 35.240349 -120.643423 303 215ft 0kts
23-Aug-20 16:48 35.240350 -120.643424 303 215ft 0kts
23-Aug-20 16:49 35.240351 -120.643425 303 215ft 0kts
23-Aug-20 16:50 35.240351 -120.643426 303 215ft 0kts
23-Aug-20 16:51 35.240352 -120.643427 303 215ft 0kts
23-Aug-20 16:52 35.240352 -120.643428 303 215ft 0kts
23-Aug-20 16:53 35.240353 -120.643429 303 215ft 0kts
23-Aug-20 16:54 35.240353 -120.643430 303 215ft 0kts
23-Aug-20 16:55 35.240378 -120.643453 339 215ft 0kts
23-Aug-20 16:56 35.239356 -120.642690 124 215ft 9kts
23-Aug-20 16:57 35.237582 -120.639563 126 215ft 11kts
23-Aug-20 16:58 35.235701 -120.636251 125 215ft 14kts
23-Aug-20 16:59 35.233645 -120.632641 124 215ft 9kts
23-Aug-20 17:00 35.233341 -120.632574 215 215ft 0kts
23-Aug-20 17:01 35.233336 -120.632578 215 215ft 0kts
23-Aug-20 17:02 35.233323 -120.632590 215 215ft 1kts
23-Aug-20 17:03 35.236206 -120.639238 306 261ft 84kts
23-Aug-20 17:04 35.256546 -120.663209 314 1485ft 107kts
23-Aug-20 17:05 35.279409 -120.686656 318 2834ft 106kts
23-Aug-20 17:06 35.292490 -120.721314 285 4242ft 118kts
23-Aug-20 17:07 35.300521 -120.762148 286 5225ft 126kts
23-Aug-20 17:08 35.306382 -120.805194 284 6495ft 127kts
23-Aug-20 17:09 35.312724 -120.848018 282 7327ft 128kts
23-Aug-20 17:10 35.329327 -120.882096 310 8341ft 122kts
23-Aug-20 17:11 35.354265 -120.921573 310 8144ft 156kts
23-Aug-20 17:12 35.381783 -120.964930 309 8136ft 162kts
23-Aug-20 17:13 35.409391 -121.008328 310 8139ft 161kts
23-Aug-20 17:14 35.436709 -121.052098 309 8144ft 161kts
23-Aug-20 17:15 35.464017 -121.095673 310 8148ft 161kts
23-Aug-20 17:16 35.491392 -121.139345 310 8145ft 161kts
23-Aug-20 17:17 35.518848 -121.183174 310 8148ft 161kts
23-Aug-20 17:18 35.546308 -121.226799 310 8142ft 162kts
23-Aug-20 17:19 35.574067 -121.270450 310 8148ft 161kts
23-Aug-20 17:20 35.601346 -121.314403 310 8144ft 162kts
23-Aug-20 17:21 35.628710 -121.358280 310 8149ft 162kts
23-Aug-20 17:22 35.659291 -121.396978 351 8157ft 158kts
23-Aug-20 17:23 35.703085 -121.402544 346 8173ft 158kts
23-Aug-20 17:24 35.744898 -121.419752 341 8173ft 158kts
23-Aug-20 17:25 35.786137 -121.438744 339 8175ft 158kts
23-Aug-20 17:26 35.827142 -121.459377 337 8171ft 158kts
23-Aug-20 17:27 35.867775 -121.480334 337 8176ft 158kts
23-Aug-20 17:28 35.908426 -121.501250 337 8176ft 158kts
23-Aug-20 17:29 35.949316 -121.522153 337 8172ft 158kts
23-Aug-20 17:30 35.990023 -121.543095 337 8174ft 158kts
23-Aug-20 17:31 36.030947 -121.564333 338 8184ft 164kts
23-Aug-20 17:32 36.074516 -121.586755 337 8170ft 169kts
23-Aug-20 17:33 36.116346 -121.608451 338 8174ft 160kts
23-Aug-20 17:34 36.157837 -121.630114 339 8176ft 161kts
23-Aug-20 17:35 36.195018 -121.661529 324 8171ft 163kts
23-Aug-20 17:36 36.236671 -121.664987 20 8167ft 170kts
23-Aug-20 17:37 36.279320 -121.642329 21 8171ft 165kts
23-Aug-20 17:39 36.320948 -121.619912 21 8172ft 162kts
23-Aug-20 17:40 36.363634 -121.595762 22 8166ft 170kts
23-Aug-20 17:41 36.404987 -121.570909 22 8168ft 162kts
23-Aug-20 17:42 36.445809 -121.546882 22 8171ft 161kts
23-Aug-20 17:43 36.488111 -121.522193 21 8162ft 170kts
23-Aug-20 17:44 36.531122 -121.498617 21 7359ft 168kts
23-Aug-20 17:45 36.570328 -121.469672 68 6457ft 170kts
23-Aug-20 17:46 36.535280 -121.453512 202 5698ft 182kts
23-Aug-20 17:47 36.492622 -121.483420 261 5180ft 166kts
23-Aug-20 17:48 36.484187 -121.539359 280 5170ft 159kts
23-Aug-20 17:49 36.499632 -121.590524 296 5169ft 157kts
23-Aug-20 17:50 36.517137 -121.640709 294 4913ft 163kts
23-Aug-20 17:51 36.534658 -121.692403 298 3838ft 156kts
23-Aug-20 17:52 36.550451 -121.735360 301 2990ft 124kts
23-Aug-20 17:53 36.563272 -121.774413 300 2228ft 127kts
23-Aug-20 17:54 36.575968 -121.811444 294 990ft 100kts
23-Aug-20 17:55 36.584919 -121.838216 294 209ft 58kts
23-Aug-20 17:56 36.587205 -121.845814 240 208ft 6kts
23-Aug-20 17:56 36.587150 -121.847308 294 208ft 11kts
23-Aug-20 17:57 36.588580 -121.851528 291 208ft 13kts
23-Aug-20 17:59 36.588808 -121.853201 202 208ft 0kts

Navigation Log

Ident Type
Flight plan parsing failed, navigation log unavailable